Time;durP1;ratioP1;P1;durP2;ratioP2;P2;SDS_P1;SDS_P2;PMS_P1;PMS_P2;Temp;Humidity;BMP_temperature;BMP_pressure;BME280_temperature;BME280_humidity;BME280_pressure;Samples;Min_cycle;Max_cycle;Signal;HPM_P1;HPM_P2
2022/09/12 00:01:22;;;;;;;1.90;1.00;;;;;;;26.45;44.27;100893.00;5070769;28;20032;-51
2022/09/12 00:04:01;;;;;;;1.45;0.80;;;;;;;26.46;44.15;100888.59;5070642;28;20020;-48
2022/09/12 00:06:33;;;;;;;1.40;0.85;;;;;;;26.48;43.97;100881.59;5053195;28;20098;-47
2022/09/12 00:09:04;;;;;;;1.45;0.80;;;;;;;26.49;44.05;100889.47;5069167;28;20040;-50
2022/09/12 00:11:35;;;;;;;3.05;1.27;;;;;;;26.51;44.09;100890.38;5069235;28;20106;-51
2022/09/12 00:14:03;;;;;;;2.15;1.05;;;;;;;26.49;44.04;100889.47;5074874;28;20097;-50
2022/09/12 00:16:33;;;;;;;4.13;1.13;;;;;;;26.48;44.17;100882.47;5078151;28;20028;-50
2022/09/12 00:19:02;;;;;;;3.38;1.33;;;;;;;26.45;43.99;100877.22;5073080;28;20103;-47
2022/09/12 00:21:33;;;;;;;1.48;0.77;;;;;;;26.37;44.34;100864.06;5074737;28;20115;-47
2022/09/12 00:24:03;;;;;;;1.88;1.15;;;;;;;26.43;44.09;100868.44;5070297;28;20024;-49
2022/09/12 00:26:31;;;;;;;1.27;0.63;;;;;;;26.44;43.99;100874.56;5069673;28;20056;-48
2022/09/12 00:29:00;;;;;;;2.80;1.00;;;;;;;26.47;43.86;100870.22;5067618;28;20040;-50
2022/09/12 00:31:29;;;;;;;3.40;0.90;;;;;;;26.44;43.72;100862.31;5068584;28;20395;-49
2022/09/12 00:33:59;;;;;;;1.65;0.80;;;;;;;26.43;43.80;100863.19;5051214;28;20024;-47
2022/09/12 00:36:28;;;;;;;1.38;0.82;;;;;;;26.43;43.91;100864.94;5068933;28;20043;-47
2022/09/12 00:38:57;;;;;;;1.48;0.70;;;;;;;26.41;43.99;100872.81;5068239;28;20025;-48
2022/09/12 00:41:28;;;;;;;2.00;0.88;;;;;;;26.42;43.91;100876.31;5069179;28;20028;-48
2022/09/12 00:43:59;;;;;;;1.90;0.80;;;;;;;26.44;43.85;100864.94;5070925;28;20060;-50
2022/09/12 00:46:37;;;;;;;2.25;0.85;;;;;;;26.35;43.75;100849.13;5074842;28;20035;-52
2022/09/12 00:49:12;;;;;;;2.17;1.15;;;;;;;26.48;43.75;100865.81;5055264;28;20043;-49
2022/09/12 00:51:46;;;;;;;1.00;0.77;;;;;;;26.46;43.82;100857.94;5054176;28;20501;-49
2022/09/12 00:54:21;;;;;;;2.30;0.90;;;;;;;26.44;43.75;100859.69;5064327;28;20110;-50
2022/09/12 00:56:52;;;;;;;2.10;0.75;;;;;;;26.46;43.61;100855.31;5063913;28;20391;-50
2022/09/12 00:59:25;;;;;;;2.25;0.80;;;;;;;26.40;43.56;100860.56;5062740;28;20467;-49
2022/09/12 01:01:54;;;;;;;2.60;1.02;;;;;;;26.37;43.93;100858.81;5070834;28;20395;-51
2022/09/12 01:04:24;;;;;;;1.35;0.70;;;;;;;26.41;43.65;100850.88;5055931;28;20039;-51
2022/09/12 01:06:53;;;;;;;2.92;0.90;;;;;;;26.43;43.54;100854.41;5070161;28;20056;-52
2022/09/12 01:09:23;;;;;;;4.75;0.98;;;;;;;26.34;43.60;100845.66;5069866;28;20119;-50
2022/09/12 01:11:52;;;;;;;1.45;0.80;;;;;;;26.30;43.67;100835.13;5069682;28;20090;-51
2022/09/12 01:14:21;;;;;;;4.65;0.77;;;;;;;26.32;43.64;100849.13;5070084;28;20153;-49
2022/09/12 01:16:51;;;;;;;2.00;0.50;;;;;;;26.29;43.61;100838.63;5069998;28;20402;-52
2022/09/12 01:19:41;;;;;;;1.05;0.75;;;;;;;26.24;43.84;100838.59;5048799;28;20459;-52
2022/09/12 01:22:37;;;;;;;2.20;0.98;;;;;;;26.29;43.78;100841.25;5067548;28;20103;-51
2022/09/12 01:25:28;;;;;;;2.25;0.68;;;;;;;26.30;43.39;100828.09;5067874;28;20051;-48
2022/09/12 01:28:19;;;;;;;2.33;0.88;;;;;;;26.38;43.33;100830.75;5034349;28;20411;-50
2022/09/12 01:30:50;;;;;;;1.23;0.45;;;;;;;26.33;43.37;100830.75;5070871;28;20032;-51
2022/09/12 01:33:25;;;;;;;0.90;0.52;;;;;;;26.28;43.44;100829.84;5074905;28;20119;-52
2022/09/12 01:36:23;;;;;;;2.08;0.70;;;;;;;26.24;43.49;100830.72;5071824;28;20024;-51
2022/09/12 01:38:58;;;;;;;3.75;0.60;;;;;;;26.26;43.59;100825.47;5069405;28;20044;-50
2022/09/12 01:41:35;;;;;;;3.13;0.80;;;;;;;26.28;43.53;100829.00;5054718;28;20037;-50
2022/09/12 01:44:09;;;;;;;3.28;1.13;;;;;;;26.25;43.52;100821.94;5074099;28;20028;-48
2022/09/12 01:47:15;;;;;;;3.45;0.88;;;;;;;26.23;43.42;100813.19;5067448;28;20060;-49
2022/09/12 01:49:47;;;;;;;4.55;0.70;;;;;;;26.20;43.37;100814.06;5068924;28;20100;-51
2022/09/12 01:52:39;;;;;;;1.55;0.60;;;;;;;26.24;43.25;100809.69;5073727;28;20036;-50
2022/09/12 01:55:18;;;;;;;1.45;0.60;;;;;;;26.21;43.24;100805.31;5065888;28;20614;-51
2022/09/12 01:57:53;;;;;;;2.40;0.60;;;;;;;26.21;43.22;100794.78;5068719;28;20033;-50
2022/09/12 02:00:22;;;;;;;2.33;0.85;;;;;;;26.18;43.36;100799.19;5071717;28;20667;-51
2022/09/12 02:03:01;;;;;;;2.25;0.88;;;;;;;26.20;43.25;100795.66;5071515;28;20036;-51
2022/09/12 02:05:43;;;;;;;1.60;0.80;;;;;;;26.22;43.05;100795.69;5057681;28;20067;-49
2022/09/12 02:08:16;;;;;;;1.77;0.60;;;;;;;26.18;43.26;100794.78;5074084;28;20032;-49
2022/09/12 02:10:50;;;;;;;2.00;0.80;;;;;;;26.19;43.42;100793.91;5058112;28;20078;-51
2022/09/12 02:13:26;;;;;;;1.60;0.50;;;;;;;26.15;43.35;100786.03;5057537;28;20135;-49
2022/09/12 02:15:59;;;;;;;2.78;0.68;;;;;;;26.14;43.39;100784.25;5071808;28;20094;-48
2022/09/12 02:18:29;;;;;;;1.45;0.68;;;;;;;26.10;43.35;100775.47;5071844;28;20119;-48
2022/09/12 02:20:59;;;;;;;1.33;0.50;;;;;;;26.20;43.08;100772.00;5060445;28;20111;-50
2022/09/12 02:23:30;;;;;;;0.80;0.40;;;;;;;26.19;43.01;100764.97;5065043;28;20033;-49
2022/09/12 02:26:04;;;;;;;2.85;0.80;;;;;;;26.18;43.06;100762.38;5064706;28;20048;-48
2022/09/12 02:28:37;;;;;;;3.45;0.77;;;;;;;26.18;43.16;100757.09;5058782;28;20020;-47
2022/09/12 02:31:32;;;;;;;1.92;0.65;;;;;;;26.09;43.15;100750.06;5053668;28;20032;-48
2022/09/12 02:34:04;;;;;;;1.83;0.70;;;;;;;26.14;43.19;100748.34;5073234;28;20032;-48
2022/09/12 02:36:38;;;;;;;1.88;0.60;;;;;;;26.13;42.75;100743.97;5068804;28;20079;-47
2022/09/12 02:39:07;;;;;;;2.08;0.70;;;;;;;26.12;43.17;100744.84;5075908;28;20024;-48
2022/09/12 02:41:36;;;;;;;1.80;0.65;;;;;;;26.07;43.03;100746.53;5053741;28;20381;-47
2022/09/12 02:44:05;;;;;;;1.77;0.60;;;;;;;26.05;43.23;100738.69;5075984;28;20386;-47
2022/09/12 02:46:41;;;;;;;0.77;0.60;;;;;;;26.07;42.93;100738.66;5075185;28;20032;-48
2022/09/12 02:49:09;;;;;;;1.23;0.60;;;;;;;26.04;42.76;100726.41;5076671;28;20634;-52
2022/09/12 02:51:38;;;;;;;2.63;0.63;;;;;;;26.06;43.06;100726.41;5071265;28;20039;-50
2022/09/12 02:54:08;;;;;;;2.00;0.50;;;;;;;26.04;42.98;100717.63;5072291;28;20033;-48
2022/09/12 02:56:40;;;;;;;1.75;0.68;;;;;;;26.03;43.01;100727.28;5067718;28;20483;-51
2022/09/12 02:59:10;;;;;;;2.00;0.70;;;;;;;26.02;43.02;100729.88;5064358;28;20029;-46
2022/09/12 03:01:50;;;;;;;2.10;0.68;;;;;;;26.01;42.86;100731.66;5056671;28;20361;-51
2022/09/12 03:04:23;;;;;;;2.00;0.55;;;;;;;26.01;42.81;100736.03;5074190;28;20500;-49
2022/09/12 03:07:08;;;;;;;1.77;0.50;;;;;;;25.99;42.97;100724.63;5072921;28;20086;-51
2022/09/12 03:10:14;;;;;;;1.45;0.50;;;;;;;26.00;42.51;100721.13;5073413;28;20032;-50
2022/09/12 03:12:47;;;;;;;2.38;0.55;;;;;;;26.04;42.84;100730.78;5066681;28;20387;-49
2022/09/12 03:15:18;;;;;;;1.85;0.80;;;;;;;26.05;42.71;100725.53;5067789;28;20115;-50
2022/09/12 03:18:11;;;;;;;2.72;0.60;;;;;;;26.02;42.63;100722.91;5065478;28;20039;-52
2022/09/12 03:21:01;;;;;;;1.95;0.45;;;;;;;26.02;42.58;100720.25;5061624;28;20047;-52
2022/09/12 03:23:33;;;;;;;1.60;0.50;;;;;;;26.00;42.55;100727.28;5070993;28;20116;-49
2022/09/12 03:26:25;;;;;;;3.28;0.68;;;;;;;25.97;42.50;100722.00;5049948;28;20428;-52
2022/09/12 03:28:55;;;;;;;4.78;0.75;;;;;;;25.98;42.62;100717.66;5064072;28;20044;-51
2022/09/12 03:31:24;;;;;;;1.52;0.60;;;;;;;25.98;42.45;100722.91;5069134;28;20031;-52
2022/09/12 03:33:52;;;;;;;3.13;0.80;;;;;;;25.98;42.24;100728.16;5053414;28;20060;-51
2022/09/12 03:36:23;;;;;;;2.13;0.60;;;;;;;25.93;42.46;100722.88;5072884;28;20024;-48
2022/09/12 03:38:52;;;;;;;2.08;0.63;;;;;;;25.87;42.38;100709.75;5053504;28;20029;-49
2022/09/12 03:41:21;;;;;;;1.38;0.57;;;;;;;25.85;42.62;100709.72;5070914;28;20033;-51
2022/09/12 03:43:50;;;;;;;1.20;0.50;;;;;;;25.87;42.67;100707.97;5071556;28;20032;-49
2022/09/12 03:46:18;;;;;;;1.10;0.40;;;;;;;25.84;42.29;100694.84;5067019;28;20111;-49
2022/09/12 03:48:47;;;;;;;1.40;0.50;;;;;;;25.83;42.63;100707.97;5064910;28;20039;-47
2022/09/12 03:51:15;;;;;;;2.08;0.60;;;;;;;25.84;42.21;100702.72;5069073;28;20027;-51
2022/09/12 03:53:44;;;;;;;3.55;0.70;;;;;;;25.88;42.34;100707.09;5075278;28;20486;-49
2022/09/12 03:56:14;;;;;;;2.05;0.60;;;;;;;25.82;42.48;100701.84;5069136;28;20513;-48
2022/09/12 03:58:42;;;;;;;2.05;0.60;;;;;;;25.81;42.18;100688.72;5069070;28;20515;-51
2022/09/12 04:01:12;;;;;;;1.27;0.40;;;;;;;25.84;42.34;100693.97;5069101;28;20028;-50
2022/09/12 04:03:42;;;;;;;1.17;0.47;;;;;;;25.81;42.27;100697.47;5072108;28;20032;-52
2022/09/12 04:06:12;;;;;;;3.05;0.52;;;;;;;25.76;42.54;100693.97;5067670;28;20983;-47
2022/09/12 04:08:42;;;;;;;1.30;0.47;;;;;;;25.76;42.30;100691.34;5071770;28;20039;-47
2022/09/12 04:11:13;;;;;;;0.50;0.40;;;;;;;25.78;42.17;100689.59;5071472;28;20036;-46
2022/09/12 04:13:43;;;;;;;6.72;1.75;;;;;;;25.80;42.34;100679.97;5073455;28;20103;-50
2022/09/12 04:16:12;;;;;;;2.58;0.50;;;;;;;25.80;42.37;100679.97;5064448;28;20103;-48
2022/09/12 04:18:41;;;;;;;0.77;0.40;;;;;;;25.75;42.18;100673.81;5068838;28;20071;-48
2022/09/12 04:21:12;;;;;;;1.45;0.57;;;;;;;25.67;42.53;100676.44;5069153;28;20477;-47
2022/09/12 04:23:40;;;;;;;2.72;0.40;;;;;;;25.73;42.38;100683.44;5071823;28;20028;-51
2022/09/12 04:26:09;;;;;;;3.63;0.77;;;;;;;25.69;42.25;100674.69;5071425;28;20040;-51
2022/09/12 04:28:38;;;;;;;2.20;0.57;;;;;;;25.69;42.27;100685.19;5069553;28;20028;-46
2022/09/12 04:31:10;;;;;;;3.47;0.70;;;;;;;25.66;42.20;100674.69;5071583;28;20039;-47
2022/09/12 04:33:38;;;;;;;3.47;0.63;;;;;;;25.60;42.15;100661.53;5063562;28;20041;-50
2022/09/12 04:36:08;;;;;;;2.03;0.70;;;;;;;25.72;41.93;100676.44;5067601;28;20111;-48
2022/09/12 04:38:37;;;;;;;0.95;0.40;;;;;;;25.72;42.21;100673.81;5069753;28;20082;-47
2022/09/12 04:41:18;;;;;;;1.92;0.50;;;;;;;25.71;41.89;100664.16;5068658;28;20028;-49
2022/09/12 04:43:47;;;;;;;2.75;0.52;;;;;;;25.68;42.26;100658.91;5067323;28;20035;-46
2022/09/12 04:46:19;;;;;;;1.80;0.60;;;;;;;25.63;41.91;100659.81;5034028;28;21164;-50
2022/09/12 04:48:48;;;;;;;2.67;0.50;;;;;;;25.68;42.30;100666.78;5062908;28;20029;-47
2022/09/12 04:51:20;;;;;;;3.42;0.77;;;;;;;25.70;42.06;100670.31;5070409;28;20025;-52
2022/09/12 04:53:51;;;;;;;1.50;0.70;;;;;;;25.69;41.86;100679.06;5071407;28;20062;-49
2022/09/12 04:56:21;;;;;;;1.83;0.98;;;;;;;25.68;41.75;100677.28;5070030;28;20054;-49
2022/09/12 04:58:50;;;;;;;1.00;0.40;;;;;;;25.74;42.03;100682.56;5071879;28;20114;-50
2022/09/12 05:01:21;;;;;;;2.70;0.50;;;;;;;25.71;41.98;100675.56;5066473;28;20032;-50
2022/09/12 05:03:50;;;;;;;1.33;0.60;;;;;;;25.69;41.85;100663.28;5066904;28;20479;-48
2022/09/12 05:06:21;;;;;;;5.90;0.43;;;;;;;25.69;42.01;100665.91;5074686;28;20422;-48
2022/09/12 05:08:50;;;;;;;1.23;0.50;;;;;;;25.66;41.86;100668.53;5079060;28;20100;-52
2022/09/12 05:11:22;;;;;;;1.90;0.82;;;;;;;25.54;42.10;100669.41;5072892;28;20032;-49
2022/09/12 05:13:50;;;;;;;3.22;0.90;;;;;;;25.50;42.11;100652.75;5069890;28;20038;-47
2022/09/12 05:16:19;;;;;;;1.33;0.60;;;;;;;25.55;42.22;100648.41;5072425;28;20558;-51
2022/09/12 05:18:49;;;;;;;1.27;0.35;;;;;;;25.63;42.02;100646.66;5072978;28;20020;-52
2022/09/12 05:21:20;;;;;;;3.20;1.02;;;;;;;25.58;41.99;100645.78;5072013;28;20032;-52
2022/09/12 05:23:50;;;;;;;2.95;0.57;;;;;;;25.51;41.77;100646.63;5069272;28;20099;-49
2022/09/12 05:26:19;;;;;;;1.85;0.50;;;;;;;25.50;41.83;100646.66;5077186;28;20078;-50
2022/09/12 05:28:48;;;;;;;1.80;0.55;;;;;;;25.52;41.85;100640.50;5074781;28;20502;-49
2022/09/12 05:31:18;;;;;;;1.67;0.60;;;;;;;25.55;41.85;100651.03;5054691;28;20032;-47
2022/09/12 05:33:48;;;;;;;2.25;0.60;;;;;;;25.58;41.82;100650.13;5072522;28;20024;-47
2022/09/12 05:36:19;;;;;;;1.27;0.57;;;;;;;25.58;41.74;100656.28;5070600;28;20028;-52
2022/09/12 05:38:48;;;;;;;3.30;0.70;;;;;;;25.55;41.32;100651.03;5076910;28;20032;-52
2022/09/12 05:41:18;;;;;;;1.42;0.50;;;;;;;25.57;41.87;100648.38;5072090;28;20063;-50
2022/09/12 05:43:51;;;;;;;2.65;0.73;;;;;;;25.55;41.67;100651.03;5078241;28;20024;-50
2022/09/12 05:46:21;;;;;;;2.55;0.60;;;;;;;25.57;41.94;100654.53;5071944;28;20063;-47
2022/09/12 05:48:50;;;;;;;1.00;0.55;;;;;;;25.57;41.72;100654.53;5077490;28;20118;-48
2022/09/12 05:51:22;;;;;;;3.25;0.60;;;;;;;25.53;41.79;100663.28;5072462;28;20086;-53
2022/09/12 05:53:54;;;;;;;2.38;0.50;;;;;;;25.60;41.82;100654.53;5073693;28;20082;-52
2022/09/12 05:56:25;;;;;;;1.52;0.60;;;;;;;25.51;41.70;100653.66;5076848;28;20093;-54
2022/09/12 05:58:56;;;;;;;1.58;0.50;;;;;;;25.53;41.75;100647.50;5069305;28;20024;-50
2022/09/12 06:01:24;;;;;;;0.88;0.45;;;;;;;25.53;41.78;100652.75;5071693;28;20020;-51
2022/09/12 06:03:55;;;;;;;2.42;0.60;;;;;;;25.54;41.80;100651.03;5057446;28;20443;-50
2022/09/12 06:06:24;;;;;;;3.78;0.80;;;;;;;25.53;41.82;100646.66;5047510;28;20479;-53
2022/09/12 06:08:57;;;;;;;1.45;0.73;;;;;;;25.52;41.78;100635.25;5070723;28;20044;-49
2022/09/12 06:11:27;;;;;;;1.75;0.70;;;;;;;25.52;41.99;100632.63;5071744;28;20459;-56
2022/09/12 06:13:56;;;;;;;1.55;0.60;;;;;;;25.46;42.17;100625.63;5068268;28;20043;-56
2022/09/12 06:16:27;;;;;;;2.47;0.73;;;;;;;25.51;41.74;100633.50;5070935;28;20020;-49
2022/09/12 06:18:58;;;;;;;2.55;0.50;;;;;;;25.52;41.79;100624.75;5069207;28;20109;-53
2022/09/12 06:21:27;;;;;;;1.15;0.60;;;;;;;25.61;41.97;100644.91;5056375;28;20027;-47
2022/09/12 06:23:57;;;;;;;5.65;0.73;;;;;;;25.62;41.78;100651.91;5058690;28;20112;-48
2022/09/12 06:26:26;;;;;;;2.75;0.73;;;;;;;25.60;41.77;100649.28;5056601;28;20044;-52
2022/09/12 06:28:55;;;;;;;3.47;0.80;;;;;;;25.62;42.01;100642.28;5074114;28;20032;-53
2022/09/12 06:31:26;;;;;;;1.42;0.70;;;;;;;25.63;41.79;100633.53;5071041;28;20044;-50
2022/09/12 06:33:56;;;;;;;3.00;0.70;;;;;;;25.80;41.64;100643.19;5049092;28;20107;-49
2022/09/12 06:36:26;;;;;;;8.45;1.00;;;;;;;25.75;41.60;100644.91;5070823;28;20023;-47
2022/09/12 06:38:56;;;;;;;1.52;0.73;;;;;;;25.82;41.85;100635.28;5073872;28;20084;-47
2022/09/12 06:41:25;;;;;;;1.65;0.60;;;;;;;25.85;41.98;100638.78;5073896;28;20218;-49
2022/09/12 06:43:54;;;;;;;4.32;0.57;;;;;;;25.79;41.82;100623.03;5073852;28;20027;-50
2022/09/12 06:46:23;;;;;;;3.60;0.60;;;;;;;25.85;41.88;100619.53;5073955;28;20112;-47
2022/09/12 06:48:51;;;;;;;2.63;0.77;;;;;;;25.91;41.66;100637.91;5066617;28;20445;-48
2022/09/12 06:51:20;;;;;;;2.65;0.60;;;;;;;25.86;42.13;100616.03;5066942;28;20025;-48
2022/09/12 06:53:49;;;;;;;4.03;0.93;;;;;;;25.93;42.04;100638.78;5067166;28;20119;-48
2022/09/12 06:56:20;;;;;;;3.70;0.60;;;;;;;25.89;41.90;100639.69;5052022;28;20364;-50
2022/09/12 06:58:49;;;;;;;1.80;0.60;;;;;;;25.98;41.82;100629.13;5070460;28;20435;-50
2022/09/12 07:01:21;;;;;;;4.10;1.00;;;;;;;26.03;42.09;100623.88;5073599;28;20139;-50
2022/09/12 07:03:52;;;;;;;4.40;0.90;;;;;;;26.00;41.51;100616.88;5060631;28;20025;-52
2022/09/12 07:06:23;;;;;;;2.10;0.60;;;;;;;25.96;41.11;100612.50;5049715;28;20103;-51
2022/09/12 07:08:51;;;;;;;2.10;0.52;;;;;;;26.00;41.62;100618.63;5072340;28;20032;-50
2022/09/12 07:11:20;;;;;;;3.55;0.60;;;;;;;26.02;41.75;100612.50;5069180;28;20028;-50
2022/09/12 07:13:52;;;;;;;2.30;0.80;;;;;;;26.06;41.63;100608.09;5051617;28;20051;-51
2022/09/12 07:16:20;;;;;;;5.20;1.00;;;;;;;26.11;41.32;100609.00;5069304;28;20502;-50
2022/09/12 07:18:54;;;;;;;2.47;0.55;;;;;;;26.05;41.63;100599.34;5069900;28;20446;-51
2022/09/12 07:21:26;;;;;;;4.22;0.75;;;;;;;26.18;41.65;100599.34;5075275;28;20105;-53
2022/09/12 07:23:56;;;;;;;1.42;0.63;;;;;;;26.24;41.37;100591.44;5070062;28;20024;-53
2022/09/12 07:26:27;;;;;;;3.05;0.60;;;;;;;26.20;41.29;100577.44;5057524;28;20067;-50
2022/09/12 07:28:56;;;;;;;2.42;0.43;;;;;;;26.29;41.20;100576.53;5048800;28;20391;-51
2022/09/12 07:31:26;;;;;;;4.93;0.88;;;;;;;26.31;41.24;100568.66;5069216;28;20028;-48
2022/09/12 07:33:54;;;;;;;3.10;0.77;;;;;;;26.33;41.12;100554.63;5053673;28;20107;-48
2022/09/12 07:36:24;;;;;;;1.58;0.60;;;;;;;26.29;41.30;100567.78;5071809;28;20029;-49
2022/09/12 07:38:57;;;;;;;3.83;0.93;;;;;;;26.27;41.24;100566.91;5071460;28;20526;-48
2022/09/12 07:41:28;;;;;;;3.25;0.80;;;;;;;26.41;41.25;100580.00;5063713;28;20165;-50
2022/09/12 07:43:59;;;;;;;2.80;0.57;;;;;;;26.43;41.14;100573.88;5063606;28;20479;-50
2022/09/12 07:46:28;;;;;;;2.45;0.60;;;;;;;26.48;41.29;100564.19;5051974;28;21118;-49
2022/09/12 07:48:58;;;;;;;2.58;0.73;;;;;;;26.52;41.32;100570.34;5069242;28;20055;-51
2022/09/12 07:51:28;;;;;;;3.58;0.55;;;;;;;26.55;41.21;100572.97;5070175;28;20037;-48
2022/09/12 07:53:57;;;;;;;2.22;0.65;;;;;;;26.61;40.92;100572.91;5070277;28;20056;-50
2022/09/12 07:56:25;;;;;;;3.15;0.70;;;;;;;26.61;41.02;100577.31;5063315;28;20047;-49
2022/09/12 07:58:55;;;;;;;2.70;0.90;;;;;;;26.65;40.81;100589.53;5064073;28;20063;-49
2022/09/12 08:01:24;;;;;;;1.98;0.70;;;;;;;26.62;40.64;100586.97;5066964;28;20050;-51
2022/09/12 08:03:57;;;;;;;1.23;0.50;;;;;;;26.63;40.75;100599.22;5064339;28;20162;-51
2022/09/12 08:06:26;;;;;;;2.42;0.70;;;;;;;26.69;40.65;100605.34;5068906;28;20073;-48
2022/09/12 08:08:56;;;;;;;3.60;0.70;;;;;;;26.73;40.62;100606.19;5046478;28;20056;-50
2022/09/12 08:11:26;;;;;;;1.55;0.60;;;;;;;26.76;40.50;100598.28;5065148;28;20486;-51
2022/09/12 08:13:55;;;;;;;1.55;0.52;;;;;;;26.76;40.44;100597.41;5067906;28;20036;-51
2022/09/12 08:16:25;;;;;;;2.00;0.90;;;;;;;26.77;40.27;100599.16;5063601;28;20105;-51
2022/09/12 08:18:54;;;;;;;3.33;0.70;;;;;;;26.76;40.49;100593.03;5067062;28;20028;-48
2022/09/12 08:21:25;;;;;;;4.05;0.80;;;;;;;26.78;40.28;100586.00;5063892;28;20059;-49
2022/09/12 08:23:55;;;;;;;1.90;0.50;;;;;;;26.82;40.38;100584.25;5067350;28;20119;-48
2022/09/12 08:26:24;;;;;;;3.15;0.60;;;;;;;26.82;40.54;100577.22;5066610;28;20458;-49
2022/09/12 08:28:52;;;;;;;2.58;0.80;;;;;;;26.88;40.37;100563.19;5054337;28;20036;-48
2022/09/12 08:31:21;;;;;;;4.07;0.90;;;;;;;26.91;40.35;100559.66;5068753;28;20078;-49
2022/09/12 08:33:50;;;;;;;1.55;0.70;;;;;;;26.89;40.24;100562.28;5053240;28;20029;-49
2022/09/12 08:36:20;;;;;;;2.63;0.77;;;;;;;26.92;40.33;100562.25;5069889;28;20043;-47
2022/09/12 08:38:55;;;;;;;3.55;1.08;;;;;;;26.92;40.36;100566.66;5071171;28;20135;-48
2022/09/12 08:41:44;;;;;;;1.38;0.45;;;;;;;26.81;40.01;100570.22;5057184;28;20032;-48
2022/09/12 08:44:32;;;;;;;1.48;0.82;;;;;;;26.89;40.07;100580.69;5060947;28;20036;-47
2022/09/12 08:47:23;;;;;;;2.00;0.80;;;;;;;26.91;40.12;100576.31;5059816;28;20040;-50
2022/09/12 08:50:17;;;;;;;2.85;0.63;;;;;;;26.96;40.05;100571.91;5063534;28;20036;-48
2022/09/12 08:53:10;;;;;;;5.18;0.70;;;;;;;26.94;40.16;100580.69;5071725;28;20024;-48
2022/09/12 08:55:43;;;;;;;7.13;0.80;;;;;;;26.96;40.20;100574.53;5036829;28;20082;-52
2022/09/12 08:58:16;;;;;;;2.65;0.73;;;;;;;26.93;40.29;100566.63;5068838;28;20093;-49
2022/09/12 09:00:54;;;;;;;1.27;0.50;;;;;;;26.92;40.18;100574.56;5049296;28;20052;-51
2022/09/12 09:03:51;;;;;;;6.25;0.63;;;;;;;26.97;40.38;100578.06;5068546;28;20038;-49
2022/09/12 09:06:37;;;;;;;3.10;0.68;;;;;;;27.06;40.16;100582.34;5065620;28;20054;-48
2022/09/12 09:09:11;;;;;;;3.70;0.85;;;;;;;27.09;40.00;100587.59;5071245;28;20529;-49
2022/09/12 09:11:57;;;;;;;1.88;0.70;;;;;;;27.09;40.20;100595.50;5069628;28;20048;-51
2022/09/12 09:15:08;;;;;;;2.33;0.57;;;;;;;27.10;40.27;100605.16;5042995;28;20070;-50
2022/09/12 09:17:40;;;;;;;3.53;0.70;;;;;;;27.05;40.35;100596.44;5063636;28;20041;-50
2022/09/12 09:20:33;;;;;;;1.08;0.57;;;;;;;27.08;40.31;100597.28;5067922;28;20035;-49
2022/09/12 09:23:22;;;;;;;4.90;0.70;;;;;;;27.08;40.46;100594.66;5064188;28;20127;-48
2022/09/12 09:25:53;;;;;;;2.63;0.73;;;;;;;27.14;40.45;100594.59;5070531;28;20410;-50
2022/09/12 09:28:43;;;;;;;1.60;0.70;;;;;;;27.14;40.36;100604.25;5068475;28;20550;-54
2022/09/12 09:31:16;;;;;;;1.33;0.50;;;;;;;27.14;40.13;100609.53;5050948;28;20986;-51
2022/09/12 09:33:46;;;;;;;3.03;0.80;;;;;;;27.21;40.43;100610.34;5069040;28;20035;-48
2022/09/12 09:36:32;;;;;;;2.33;1.00;;;;;;;27.19;40.28;100605.13;5049038;28;20099;-48
2022/09/12 09:39:05;;;;;;;2.90;0.80;;;;;;;27.10;40.64;100592.88;5053914;28;20550;-49
2022/09/12 09:41:38;;;;;;;3.08;0.65;;;;;;;27.17;40.38;100591.09;5067002;28;20479;-50
2022/09/12 09:44:06;;;;;;;2.88;0.63;;;;;;;27.15;40.41;100593.69;5068892;28;20032;-49
2022/09/12 09:46:34;;;;;;;1.20;0.40;;;;;;;27.17;40.49;100592.81;5068328;28;20056;-52
2022/09/12 09:49:02;;;;;;;4.03;0.85;;;;;;;27.22;40.64;100591.03;5070006;28;20551;-49
2022/09/12 09:51:35;;;;;;;1.77;0.52;;;;;;;27.23;40.43;100591.03;5051919;28;20055;-49
2022/09/12 09:54:25;;;;;;;2.78;0.50;;;;;;;27.20;40.72;100587.53;5075165;28;20016;-49
2022/09/12 09:56:52;;;;;;;5.38;0.60;;;;;;;27.30;40.37;100574.31;5053099;28;20152;-53
2022/09/12 09:59:30;;;;;;;2.42;0.75;;;;;;;27.32;40.59;100568.16;5068338;28;20036;-51
2022/09/12 10:02:02;;;;;;;1.60;0.73;;;;;;;27.34;40.47;100575.16;5068743;28;20399;-49
2022/09/12 10:04:33;;;;;;;3.28;0.80;;;;;;;27.34;40.26;100566.38;5071258;28;20039;-48
2022/09/12 10:07:03;;;;;;;3.58;0.82;;;;;;;27.43;40.12;100556.66;5055929;28;20039;-53
2022/09/12 10:09:33;;;;;;;4.60;0.73;;;;;;;27.42;40.29;100551.38;5069799;28;20032;-49
2022/09/12 10:12:19;;;;;;;7.15;1.35;;;;;;;27.49;40.17;100553.13;5067868;28;20502;-48
2022/09/12 10:14:58;;;;;;;5.35;0.90;;;;;;;27.51;39.84;100561.00;5055263;28;20051;-52
2022/09/12 10:17:39;;;;;;;1.23;0.57;;;;;;;27.58;39.61;100565.34;5065747;28;20035;-50
2022/09/12 10:20:45;;;;;;;4.25;0.85;;;;;;;27.64;39.79;100561.78;5065618;28;20037;-50
2022/09/12 10:23:39;;;;;;;1.95;0.50;;;;;;;27.67;39.59;100557.34;5074526;28;20012;-52
2022/09/12 10:26:13;;;;;;;2.88;0.80;;;;;;;27.69;39.32;100555.56;5061009;28;20139;-49
2022/09/12 10:28:45;;;;;;;1.52;0.70;;;;;;;27.72;39.21;100571.38;5072834;28;20021;-48
2022/09/12 10:31:27;;;;;;;2.25;0.95;;;;;;;27.74;39.24;100566.06;5069136;28;20036;-50
2022/09/12 10:33:58;;;;;;;3.50;0.40;;;;;;;27.79;38.99;100543.19;5067814;28;20024;-48
2022/09/12 10:36:34;;;;;;;1.65;0.60;;;;;;;27.88;39.10;100544.88;5065794;28;20047;-49
2022/09/12 10:39:02;;;;;;;2.30;0.82;;;;;;;27.93;39.28;100535.16;5069077;28;20020;-50
2022/09/12 10:41:36;;;;;;;0.80;0.47;;;;;;;27.96;39.41;100535.13;5050761;28;20032;-47
2022/09/12 10:44:25;;;;;;;2.65;0.77;;;;;;;27.97;39.36;100525.44;5067850;28;20040;-47
2022/09/12 10:46:54;;;;;;;2.15;0.65;;;;;;;28.00;38.95;100509.59;5066684;28;20036;-47
2022/09/12 10:49:37;;;;;;;3.83;0.93;;;;;;;28.07;38.94;100510.41;5067999;28;20082;-51
2022/09/12 10:52:24;;;;;;;2.55;0.88;;;;;;;28.12;38.91;100506.84;5052660;28;20028;-49
2022/09/12 10:54:52;;;;;;;3.28;0.60;;;;;;;28.19;39.00;100503.25;5070142;28;20031;-47
2022/09/12 10:57:28;;;;;;;1.92;0.60;;;;;;;28.27;38.85;100489.06;5067691;28;20027;-49
2022/09/12 11:00:16;;;;;;;1.42;0.40;;;;;;;28.31;38.66;100498.72;5068432;28;20372;-51
2022/09/12 11:03:23;;;;;;;5.15;0.70;;;;;;;28.30;38.39;100503.09;5049196;28;20020;-50
2022/09/12 11:05:52;;;;;;;2.47;0.85;;;;;;;28.41;37.95;100491.53;5064766;28;20113;-51
2022/09/12 11:08:34;;;;;;;1.73;0.63;;;;;;;28.39;38.26;100482.78;5065032;28;20475;-47
2022/09/12 11:11:06;;;;;;;1.55;0.60;;;;;;;28.44;38.37;100487.09;5050427;28;20495;-50
2022/09/12 11:14:12;;;;;;;2.42;0.80;;;;;;;28.43;38.09;100480.06;5068611;28;20032;-50
2022/09/12 11:16:44;;;;;;;4.22;0.88;;;;;;;28.53;38.25;100472.03;5054935;28;20071;-52
2022/09/12 11:19:32;;;;;;;2.90;0.68;;;;;;;28.50;38.34;100471.19;5069131;28;20086;-52
2022/09/12 11:22:24;;;;;;;2.92;0.80;;;;;;;28.56;37.89;100477.25;5073034;28;20419;-52
2022/09/12 11:24:52;;;;;;;4.93;0.65;;;;;;;28.64;37.75;100463.06;5063709;28;20150;-50
2022/09/12 11:27:40;;;;;;;4.65;1.20;;;;;;;28.65;38.02;100456.88;5070374;28;20051;-52
2022/09/12 11:30:11;;;;;;;2.55;0.52;;;;;;;28.72;37.70;100449.75;5061965;28;20556;-49
2022/09/12 11:33:08;;;;;;;4.22;0.70;;;;;;;28.71;37.33;100447.13;5067743;28;20028;-51
2022/09/12 11:35:47;;;;;;;1.90;0.75;;;;;;;28.74;37.27;100426.00;5060152;28;20051;-51
2022/09/12 11:38:53;;;;;;;2.35;0.63;;;;;;;28.79;36.91;100421.53;5049300;28;20029;-51
2022/09/12 11:41:28;;;;;;;6.03;0.60;;;;;;;28.85;36.71;100418.78;5050914;28;20044;-55
2022/09/12 11:44:24;;;;;;;2.85;0.52;;;;;;;28.86;36.99;100412.63;5051555;28;20107;-51
2022/09/12 11:46:52;;;;;;;4.75;0.77;;;;;;;28.93;36.80;100413.38;5066788;28;20077;-51
2022/09/12 11:49:42;;;;;;;3.80;1.08;;;;;;;28.92;37.11;100409.88;5067807;28;20167;-48
2022/09/12 11:52:29;;;;;;;6.50;1.05;;;;;;;28.92;37.54;100406.34;5068320;28;20036;-52
2022/09/12 11:55:04;;;;;;;1.42;0.60;;;;;;;28.96;37.35;100405.41;5046671;28;20043;-51
2022/09/12 11:57:31;;;;;;;;;;;;;;;28.97;37.70;100415.06;5066889;28;20039;-48